createdAt,value
2017-10-12T00:00:21.309Z,74248.76
2017-10-12T00:01:21.082Z,74235.59
2017-10-12T00:02:21.105Z,74245.27
2017-10-12T00:03:21.129Z,74253.34
2017-10-12T00:04:21.153Z,74238.17
2017-10-12T00:05:21.177Z,74244.91
2017-10-12T00:06:21.201Z,74247.16
2017-10-12T00:07:21.224Z,74258.18
2017-10-12T00:08:21.250Z,74260.98
2017-10-12T00:09:21.273Z,74264.22
2017-10-12T00:10:21.296Z,74239.96
2017-10-12T00:11:21.320Z,74246.01
2017-10-12T00:12:21.344Z,74243.38
2017-10-12T00:13:21.368Z,74260.71
2017-10-12T00:14:21.392Z,74261.08
2017-10-12T00:15:21.416Z,74239.77
2017-10-12T00:16:21.440Z,74257.07
2017-10-12T00:17:21.464Z,74241.79
2017-10-12T00:18:21.487Z,74251.39
2017-10-12T00:19:21.511Z,74259.22
2017-10-12T00:20:21.535Z,74256.69
2017-10-12T00:21:21.559Z,74260.13
2017-10-12T00:22:21.581Z,74253.23
2017-10-12T00:23:21.606Z,74255.40
2017-10-12T00:24:21.630Z,74254.27
2017-10-12T00:25:21.654Z,74245.11
2017-10-12T00:26:21.678Z,74259.66
2017-10-12T00:27:21.701Z,74241.07
2017-10-12T00:28:21.725Z,74224.39
2017-10-12T00:29:21.751Z,74252.23
2017-10-12T00:30:21.773Z,74244.63
2017-10-12T00:31:21.796Z,74232.15
2017-10-12T00:32:21.820Z,74248.78
2017-10-12T00:33:21.844Z,74247.55
2017-10-12T00:34:21.867Z,74247.31
2017-10-12T00:35:21.891Z,74249.17
2017-10-12T00:36:21.920Z,74252.01
2017-10-12T00:37:21.939Z,74243.17
2017-10-12T00:38:21.961Z,74248.29
2017-10-12T00:39:21.986Z,74255.59
2017-10-12T00:40:22.009Z,74239.12
2017-10-12T00:41:22.034Z,74242.10
2017-10-12T00:42:22.058Z,74249.08
2017-10-12T00:43:22.080Z,74242.19
2017-10-12T00:44:22.105Z,74251.28
2017-10-12T00:45:22.129Z,74263.79
2017-10-12T00:46:22.152Z,74263.27
2017-10-12T00:47:22.175Z,74242.52
2017-10-12T00:48:22.201Z,74251.47
2017-10-12T00:49:22.223Z,74259.65
2017-10-12T00:50:22.246Z,74257.59
2017-10-12T00:51:22.269Z,74263.81
2017-10-12T00:52:22.293Z,74260.71
2017-10-12T00:53:22.322Z,74251.21
2017-10-12T00:54:22.340Z,74246.13
2017-10-12T00:55:22.364Z,74251.84
2017-10-12T00:56:22.388Z,74241.00
2017-10-12T00:57:22.411Z,74249.15
2017-10-12T00:58:22.435Z,74249.66
2017-10-12T00:59:22.458Z,74250.96
2017-10-12T01:00:22.484Z,74253.56
2017-10-12T01:01:22.507Z,74249.36
2017-10-12T01:02:22.529Z,74250.28
2017-10-12T01:03:22.552Z,74242.10
2017-10-12T01:04:22.577Z,74239.32
2017-10-12T01:05:22.600Z,74228.45
2017-10-12T01:06:22.623Z,74238.77
2017-10-12T01:07:22.647Z,74243.98
2017-10-12T01:08:22.674Z,74235.41
2017-10-12T01:09:22.694Z,74232.07
2017-10-12T01:10:22.716Z,74239.00
2017-10-12T01:11:22.741Z,74243.35
2017-10-12T01:12:22.764Z,74237.50
2017-10-12T01:13:22.788Z,74244.53
2017-10-12T01:14:22.811Z,74243.38
2017-10-12T01:15:22.834Z,74240.02
2017-10-12T01:16:22.858Z,74241.33
2017-10-12T01:17:22.881Z,74241.11
2017-10-12T01:18:22.904Z,74234.77
2017-10-12T01:19:22.929Z,74226.91
2017-10-12T01:20:22.953Z,74233.24
2017-10-12T01:21:22.974Z,74233.82
2017-10-12T01:22:22.997Z,74244.16
2017-10-12T01:23:23.022Z,74244.75
2017-10-12T01:24:23.045Z,74217.55
2017-10-12T01:25:23.069Z,74232.95
2017-10-12T01:26:23.091Z,74233.96
2017-10-12T01:27:23.114Z,74232.31
2017-10-12T01:28:23.139Z,74225.16
2017-10-12T01:29:23.162Z,74220.53
2017-10-12T01:30:23.188Z,74230.54
2017-10-12T01:31:23.208Z,74233.29
2017-10-12T01:32:23.232Z,74224.49
2017-10-12T01:33:23.255Z,74237.93
2017-10-12T01:34:23.279Z,74231.88
2017-10-12T01:35:23.301Z,74214.12
2017-10-12T01:36:23.324Z,74228.20
2017-10-12T01:37:23.350Z,74207.13
2017-10-12T01:38:23.373Z,74219.69
2017-10-12T01:39:23.396Z,74221.33
2017-10-12T01:40:23.418Z,74222.30
2017-10-12T01:41:23.442Z,74207.53
2017-10-12T01:42:23.466Z,74212.13
2017-10-12T01:43:23.488Z,74215.95
2017-10-12T01:44:23.512Z,74215.69
2017-10-12T01:45:23.535Z,74217.50
2017-10-12T01:46:23.558Z,74225.78
2017-10-12T01:47:23.581Z,74226.44
2017-10-12T01:48:23.604Z,74209.13
2017-10-12T01:49:23.628Z,74213.34
2017-10-12T01:50:23.651Z,74228.03
2017-10-12T01:51:23.674Z,74217.63
2017-10-12T01:52:23.698Z,74207.61
2017-10-12T01:53:23.721Z,74231.12
2017-10-12T01:54:23.749Z,74224.09
2017-10-12T01:55:23.769Z,74211.87
2017-10-12T01:56:23.791Z,74243.77
2017-10-12T01:57:23.814Z,74213.55
2017-10-12T01:58:23.838Z,74215.20
2017-10-12T01:59:23.862Z,74212.16
2017-10-12T02:00:23.884Z,74226.06
2017-10-12T02:01:23.908Z,74210.27
2017-10-12T02:02:23.931Z,74210.91
2017-10-12T02:03:23.954Z,74214.41
2017-10-12T02:04:23.978Z,74212.90
2017-10-12T02:05:24.001Z,74222.45
2017-10-12T02:06:24.024Z,74225.83
2017-10-12T02:07:24.048Z,74200.45
2017-10-12T02:08:24.070Z,74222.04
2017-10-12T02:09:24.093Z,74171.40
2017-10-12T02:10:24.117Z,74213.02
2017-10-12T02:11:24.140Z,74193.81
2017-10-12T02:12:24.164Z,74202.52
2017-10-12T02:13:24.188Z,74219.70
2017-10-12T02:14:24.210Z,74219.77
2017-10-12T02:15:24.237Z,74215.20
2017-10-12T02:16:24.257Z,74211.67
2017-10-12T02:17:24.281Z,74229.77
2017-10-12T02:18:24.303Z,74223.57
2017-10-12T02:19:24.326Z,74240.10
2017-10-12T02:20:24.349Z,74199.53
2017-10-12T02:21:24.373Z,74232.47
2017-10-12T02:22:24.404Z,74236.55
2017-10-12T02:23:24.420Z,74237.98
2017-10-12T02:24:24.444Z,74223.55
2017-10-12T02:25:24.468Z,74210.23
2017-10-12T02:26:24.490Z,74219.65
2017-10-12T02:27:24.512Z,74216.70
2017-10-12T02:28:24.554Z,74224.70
2017-10-12T02:29:24.561Z,74210.28
2017-10-12T02:30:24.588Z,74228.09
2017-10-12T02:31:24.608Z,74217.30
2017-10-12T02:32:24.631Z,74225.81
2017-10-12T02:33:24.656Z,74207.80
2017-10-12T02:34:24.677Z,74201.88
2017-10-12T02:35:24.701Z,74215.77
2017-10-12T02:36:24.725Z,74202.01
2017-10-12T02:37:24.748Z,74224.02
2017-10-12T02:38:24.771Z,74219.35
2017-10-12T02:39:24.805Z,74218.44
2017-10-12T02:40:24.818Z,74216.77
2017-10-12T02:41:24.841Z,74214.68
2017-10-12T02:42:24.868Z,74227.04
2017-10-12T02:43:24.887Z,74224.42
2017-10-12T02:44:24.911Z,74232.60
2017-10-12T02:45:24.934Z,74246.24
2017-10-12T02:46:24.959Z,74230.30
2017-10-12T02:47:24.982Z,74234.95
2017-10-12T02:48:25.005Z,74220.31
2017-10-12T02:49:25.030Z,74240.12
2017-10-12T02:50:25.053Z,74236.91
2017-10-12T02:51:25.080Z,74236.03
2017-10-12T02:52:25.099Z,74243.82
2017-10-12T02:53:25.135Z,74216.99
2017-10-12T02:54:25.145Z,74236.53
2017-10-12T02:55:25.170Z,74236.06
2017-10-12T02:56:25.193Z,74230.23
2017-10-12T02:57:25.216Z,74241.91
2017-10-12T02:58:25.239Z,74240.92
2017-10-12T02:59:25.263Z,74245.95
2017-10-12T03:00:25.287Z,74246.84
2017-10-12T03:01:25.312Z,74247.01
2017-10-12T03:02:25.333Z,74242.15
2017-10-12T03:03:25.357Z,74238.88
2017-10-12T03:04:25.381Z,74237.75
2017-10-12T03:05:25.404Z,74250.61
2017-10-12T03:06:25.428Z,74245.48
2017-10-12T03:07:25.457Z,74230.08
2017-10-12T03:08:25.475Z,74223.98
2017-10-12T03:09:25.498Z,74226.96
2017-10-12T03:10:25.522Z,74220.92
2017-10-12T03:11:25.545Z,74230.16
2017-10-12T03:12:25.570Z,74224.14
2017-10-12T03:13:25.593Z,74233.99
2017-10-12T03:14:25.616Z,74222.16
2017-10-12T03:15:25.640Z,74213.20
2017-10-12T03:16:25.664Z,74224.77
2017-10-12T03:17:25.689Z,74220.34
2017-10-12T03:18:25.709Z,74218.95
2017-10-12T03:19:25.733Z,74210.88
2017-10-12T03:20:25.757Z,74230.51
2017-10-12T03:21:25.781Z,74225.23
2017-10-12T03:22:25.804Z,74227.26
2017-10-12T03:23:25.827Z,74237.89
2017-10-12T03:24:25.850Z,74238.45
2017-10-12T03:25:25.874Z,74227.16
2017-10-12T03:26:25.897Z,74221.42
2017-10-12T03:27:25.921Z,74224.32
2017-10-12T03:28:25.945Z,74217.06
2017-10-12T03:29:25.968Z,74225.07
2017-10-12T03:30:25.991Z,74225.70
2017-10-12T03:31:26.015Z,74208.13
2017-10-12T03:32:26.038Z,74237.16
2017-10-12T03:33:26.061Z,74222.80
2017-10-12T03:34:26.084Z,74230.43
2017-10-12T03:35:26.108Z,74231.99
2017-10-12T03:36:26.131Z,74219.55
2017-10-12T03:37:26.154Z,74240.04
2017-10-12T03:38:26.177Z,74257.58
2017-10-12T03:39:26.200Z,74233.49
2017-10-12T03:40:26.224Z,74242.27
2017-10-12T03:41:26.247Z,74243.42
2017-10-12T03:42:26.270Z,74245.35
2017-10-12T03:43:26.293Z,74262.65
2017-10-12T03:44:26.317Z,74238.41
2017-10-12T03:45:26.340Z,74243.37
2017-10-12T03:46:26.362Z,74243.24
2017-10-12T03:47:26.386Z,74242.54
2017-10-12T03:48:26.409Z,74230.77
2017-10-12T03:49:26.432Z,74239.55
2017-10-12T03:50:26.455Z,74226.03
2017-10-12T03:51:26.477Z,74223.98
2017-10-12T03:52:26.501Z,74225.72
2017-10-12T03:53:26.525Z,74219.80
2017-10-12T03:54:26.547Z,74217.05
2017-10-12T03:55:26.571Z,74220.13
2017-10-12T03:56:26.595Z,74224.21
2017-10-12T03:57:26.617Z,74234.18
2017-10-12T03:58:26.639Z,74236.90
2017-10-12T03:59:26.663Z,74232.67
2017-10-12T04:00:26.687Z,74213.63
2017-10-12T04:01:26.711Z,74216.25
2017-10-12T04:02:26.738Z,74227.65
2017-10-12T04:03:26.755Z,74227.35
2017-10-12T04:04:26.779Z,74227.40
2017-10-12T04:05:26.803Z,74221.93
2017-10-12T04:06:26.823Z,74223.33
2017-10-12T04:07:26.851Z,74229.13
2017-10-12T04:08:26.871Z,74242.75
2017-10-12T04:09:26.893Z,74226.06
2017-10-12T04:10:26.918Z,74210.49
2017-10-12T04:11:26.939Z,74219.21
2017-10-12T04:12:26.963Z,74212.77
2017-10-12T04:13:26.985Z,74215.09
2017-10-12T04:14:27.009Z,74221.65
2017-10-12T04:15:27.031Z,74219.20
2017-10-12T04:16:27.055Z,74224.85
2017-10-12T04:17:27.078Z,74230.90
2017-10-12T04:18:27.101Z,74226.92
2017-10-12T04:19:27.123Z,74218.41
2017-10-12T04:20:27.147Z,74188.79
2017-10-12T04:21:27.171Z,74227.96
2017-10-12T04:22:27.193Z,74222.36
2017-10-12T04:23:27.216Z,74222.52
2017-10-12T04:24:27.239Z,74227.12
2017-10-12T04:25:27.262Z,74218.51
2017-10-12T04:26:27.285Z,74257.88
2017-10-12T04:27:27.308Z,74224.43
2017-10-12T04:28:27.331Z,74235.07
2017-10-12T04:29:27.355Z,74219.99
2017-10-12T04:30:27.376Z,74228.41
2017-10-12T04:31:27.400Z,74237.35
2017-10-12T04:32:27.423Z,74232.80
2017-10-12T04:33:27.448Z,74242.42
2017-10-12T04:34:27.469Z,74229.99
2017-10-12T04:35:27.492Z,74228.44
2017-10-12T04:36:27.515Z,74243.16
2017-10-12T04:37:27.538Z,74237.46
2017-10-12T04:38:27.562Z,74239.07
2017-10-12T04:39:27.585Z,74243.16
2017-10-12T04:40:27.607Z,74197.48
2017-10-12T04:41:27.630Z,74212.50
2017-10-12T04:42:27.653Z,74234.72
2017-10-12T04:43:27.678Z,74230.63
2017-10-12T04:44:27.701Z,74239.93
2017-10-12T04:45:27.723Z,74242.36
2017-10-12T04:46:27.744Z,74234.34
2017-10-12T04:47:27.768Z,74233.05
2017-10-12T04:48:27.792Z,74238.41
2017-10-12T04:49:27.815Z,74251.85
2017-10-12T04:50:27.837Z,74252.26
2017-10-12T04:51:27.860Z,74251.88
2017-10-12T04:52:27.885Z,74225.22
2017-10-12T04:53:27.907Z,74232.81
2017-10-12T04:54:27.928Z,74238.67
2017-10-12T04:55:27.951Z,74228.65
2017-10-12T04:56:27.975Z,74236.77
2017-10-12T04:57:27.998Z,74239.03
2017-10-12T04:58:28.021Z,74252.00
2017-10-12T04:59:28.044Z,74252.32
2017-10-12T05:00:28.069Z,74235.86
2017-10-12T05:01:28.090Z,74242.98
2017-10-12T05:02:28.112Z,74240.45
2017-10-12T05:03:28.135Z,74244.23
2017-10-12T05:04:28.159Z,74247.95
2017-10-12T05:05:28.182Z,74252.71
2017-10-12T05:06:28.204Z,74226.82
2017-10-12T05:07:28.227Z,74247.23
2017-10-12T05:08:28.251Z,74241.16
2017-10-12T05:09:28.274Z,74260.41
2017-10-12T05:10:28.296Z,74248.48
2017-10-12T05:11:28.319Z,74246.05
2017-10-12T05:12:28.343Z,74241.39
2017-10-12T05:13:28.366Z,74223.78
2017-10-12T05:14:28.387Z,74230.93
2017-10-12T05:15:28.410Z,74222.90
2017-10-12T05:16:28.435Z,74224.55
2017-10-12T05:17:28.458Z,74236.80
2017-10-12T05:18:28.480Z,74235.97
2017-10-12T05:19:28.510Z,74225.63
2017-10-12T05:20:28.531Z,74234.02
2017-10-12T05:21:28.550Z,74223.41
2017-10-12T05:22:28.572Z,74248.51
2017-10-12T05:23:28.596Z,74242.76
2017-10-12T05:24:28.623Z,74251.68
2017-10-12T05:25:28.642Z,74241.95
2017-10-12T05:26:28.664Z,74238.84
2017-10-12T05:27:28.688Z,74224.86
2017-10-12T05:28:28.711Z,74266.82
2017-10-12T05:29:28.736Z,74238.59
2017-10-12T05:30:28.762Z,74252.23
2017-10-12T05:31:28.781Z,74262.18
2017-10-12T05:32:28.804Z,74272.70
2017-10-12T05:33:28.827Z,74276.01
2017-10-12T05:34:28.849Z,74266.59
2017-10-12T05:35:28.876Z,74246.95
2017-10-12T05:36:28.909Z,74248.95
2017-10-12T05:37:28.920Z,74257.33
2017-10-12T05:38:28.941Z,74275.77
2017-10-12T05:39:28.965Z,74267.09
2017-10-12T05:40:28.995Z,74259.88
2017-10-12T05:41:29.012Z,74252.81
2017-10-12T05:42:29.035Z,74273.84
2017-10-12T05:43:29.058Z,74245.01
2017-10-12T05:44:29.082Z,74248.27
2017-10-12T05:45:29.105Z,74267.70
2017-10-12T05:46:29.126Z,74260.73
2017-10-12T05:47:29.150Z,74253.73
2017-10-12T05:48:29.174Z,74262.41
2017-10-12T05:49:29.199Z,74257.54
2017-10-12T05:50:29.224Z,74248.40
2017-10-12T05:51:29.244Z,74244.82
2017-10-12T05:52:29.267Z,74266.86
2017-10-12T05:53:29.291Z,74248.89
2017-10-12T05:54:29.313Z,74255.69
2017-10-12T05:55:29.339Z,74263.09
2017-10-12T05:56:29.361Z,74276.38
2017-10-12T05:57:29.384Z,74258.27
2017-10-12T05:58:29.407Z,74258.88
2017-10-12T05:59:29.430Z,74271.78
2017-10-12T06:00:29.454Z,74235.80
2017-10-12T06:01:29.478Z,74269.52
2017-10-12T06:02:29.501Z,74248.00
2017-10-12T06:03:29.525Z,74259.48
2017-10-12T06:04:29.547Z,74254.28
2017-10-12T06:05:29.574Z,74268.76
2017-10-12T06:06:29.594Z,74265.80
2017-10-12T06:07:29.619Z,74268.11
2017-10-12T06:08:29.643Z,74263.72
2017-10-12T06:09:29.667Z,74267.77
2017-10-12T06:10:29.689Z,74264.22
2017-10-12T06:11:29.713Z,74247.48
2017-10-12T06:12:29.738Z,74270.83
2017-10-12T06:13:29.761Z,74271.91
2017-10-12T06:14:29.784Z,74260.41
2017-10-12T06:15:29.808Z,74278.55
2017-10-12T06:16:29.832Z,74282.96
2017-10-12T06:17:29.857Z,74285.77
2017-10-12T06:18:29.880Z,74278.64
2017-10-12T06:19:29.904Z,74279.38
2017-10-12T06:20:29.928Z,74261.10
2017-10-12T06:21:29.952Z,74274.16
2017-10-12T06:22:29.975Z,74268.67
2017-10-12T06:23:30.252Z,74280.06
2017-10-12T06:24:30.031Z,74252.83
2017-10-12T06:25:30.049Z,74273.98
2017-10-12T06:26:30.073Z,74272.49
2017-10-12T06:27:30.099Z,74291.16
2017-10-12T06:28:30.122Z,74275.66
2017-10-12T06:29:30.147Z,74283.03
2017-10-12T06:30:30.170Z,74271.88
2017-10-12T06:31:30.195Z,74281.78
2017-10-12T06:32:30.221Z,74271.87
2017-10-12T06:33:30.245Z,74273.44
2017-10-12T06:34:30.269Z,74277.49
2017-10-12T06:35:30.293Z,74297.24
2017-10-12T06:36:30.319Z,74290.76
2017-10-12T06:37:30.344Z,74268.58
2017-10-12T06:38:30.367Z,74265.48
2017-10-12T06:39:30.393Z,74268.82
2017-10-12T06:40:30.440Z,74270.10
2017-10-12T06:41:30.443Z,74274.72
2017-10-12T06:42:30.468Z,74288.84
2017-10-12T06:43:30.493Z,74285.09
2017-10-12T06:44:30.519Z,74293.57
2017-10-12T06:45:30.544Z,74279.40
2017-10-12T06:46:30.569Z,74288.26
2017-10-12T06:47:30.594Z,74289.42
2017-10-12T06:48:30.620Z,74295.26
2017-10-12T06:49:30.646Z,74294.55
2017-10-12T06:50:30.672Z,74299.12
2017-10-12T06:51:30.697Z,74308.54
2017-10-12T06:52:30.722Z,74295.41
2017-10-12T06:53:30.746Z,74270.90
2017-10-12T06:54:30.786Z,74285.69
2017-10-12T06:55:30.798Z,74274.80
2017-10-12T06:56:30.824Z,74300.23
2017-10-12T06:57:30.850Z,74305.46
2017-10-12T06:58:30.875Z,74266.17
2017-10-12T06:59:30.901Z,74301.55
2017-10-12T07:00:30.930Z,74292.05
2017-10-12T07:01:30.953Z,74299.44
2017-10-12T07:02:30.978Z,74305.96
2017-10-12T07:03:31.004Z,74299.86
2017-10-12T07:04:31.031Z,74308.37
2017-10-12T07:05:31.057Z,74301.18
2017-10-12T07:06:31.081Z,74296.91
2017-10-12T07:07:31.107Z,74269.28
2017-10-12T07:08:31.134Z,74303.89
2017-10-12T07:09:31.161Z,74306.56
2017-10-12T07:10:31.186Z,74317.43
2017-10-12T07:11:31.212Z,74274.71
2017-10-12T07:12:31.242Z,74300.09
2017-10-12T07:13:31.265Z,74299.12
2017-10-12T07:14:31.292Z,74300.75
2017-10-12T07:15:31.318Z,74306.51
2017-10-12T07:16:31.351Z,74309.80
2017-10-12T07:17:31.372Z,74318.23
2017-10-12T07:18:31.398Z,74309.64
2017-10-12T07:19:31.424Z,74313.59
2017-10-12T07:20:31.451Z,74319.99
2017-10-12T07:21:31.479Z,74304.11
2017-10-12T07:22:31.505Z,74313.59
2017-10-12T07:23:31.533Z,74321.91
2017-10-12T07:24:31.560Z,74311.88
2017-10-12T07:25:31.587Z,74307.49
2017-10-12T07:26:31.613Z,74316.54
2017-10-12T07:27:31.641Z,74313.58
2017-10-12T07:28:31.673Z,74328.08
2017-10-12T07:29:31.700Z,74324.47
2017-10-12T07:30:31.723Z,74330.10
2017-10-12T07:31:31.750Z,74331.57
2017-10-12T07:32:31.780Z,74308.39
2017-10-12T07:33:31.806Z,74336.82
2017-10-12T07:34:31.835Z,74328.86
2017-10-12T07:35:31.861Z,74337.27
2017-10-12T07:36:31.889Z,74306.20
2017-10-12T07:37:31.939Z,74309.82
2017-10-12T07:38:31.944Z,74337.68
2017-10-12T07:39:31.972Z,74320.84
2017-10-12T07:40:32.000Z,74338.89
2017-10-12T07:41:32.029Z,74349.36
2017-10-12T07:42:32.060Z,74354.18
2017-10-12T07:43:32.088Z,74348.51
2017-10-12T07:44:32.111Z,74349.71
2017-10-12T07:45:32.140Z,74324.57
2017-10-12T07:46:32.170Z,74331.06
2017-10-12T07:47:32.196Z,74332.75
2017-10-12T07:48:32.225Z,74325.19
2017-10-12T07:49:32.253Z,74343.34
2017-10-12T07:50:32.280Z,74320.34
2017-10-12T07:51:32.308Z,74335.54
2017-10-12T07:52:32.337Z,74334.80
2017-10-12T07:53:32.369Z,74330.52
2017-10-12T07:54:32.395Z,74334.73
2017-10-12T07:55:32.424Z,74328.36
2017-10-12T07:56:32.451Z,74342.45
2017-10-12T07:57:32.480Z,74334.10
2017-10-12T07:58:32.509Z,74334.85
2017-10-12T07:59:32.536Z,74327.95
2017-10-12T08:00:32.566Z,74332.58
2017-10-12T08:01:32.596Z,74320.43
2017-10-12T08:02:32.623Z,74331.75
2017-10-12T08:03:32.652Z,74328.14
2017-10-12T08:04:32.682Z,74324.25
2017-10-12T08:05:32.710Z,74324.32
2017-10-12T08:06:32.739Z,74332.72
2017-10-12T08:07:32.769Z,74359.00
2017-10-12T08:08:32.796Z,74346.46
2017-10-12T08:09:32.828Z,74328.32
2017-10-12T08:10:32.854Z,74334.53
2017-10-12T08:11:32.883Z,74351.37
2017-10-12T08:12:32.918Z,74335.41
2017-10-12T08:13:32.942Z,74333.40
2017-10-12T08:14:32.970Z,74342.50
2017-10-12T08:15:33.249Z,74342.06
2017-10-12T08:16:33.029Z,74357.66
2017-10-12T08:17:33.059Z,74339.23
2017-10-12T08:18:33.087Z,74359.58
2017-10-12T08:19:33.116Z,74366.17
2017-10-12T08:20:33.146Z,74364.33
2017-10-12T08:21:33.175Z,74356.95
2017-10-12T08:22:33.204Z,74363.40
2017-10-12T08:23:33.234Z,74366.80
2017-10-12T08:24:33.270Z,74351.06
2017-10-12T08:25:33.293Z,74356.68
2017-10-12T08:26:33.322Z,74360.07
2017-10-12T08:27:33.352Z,74341.13
2017-10-12T08:28:33.382Z,74341.89
2017-10-12T08:29:33.411Z,74376.57
2017-10-12T08:30:33.441Z,74372.87
2017-10-12T08:31:33.470Z,74374.93
2017-10-12T08:32:33.501Z,74354.54
2017-10-12T08:33:33.529Z,74381.06
2017-10-12T08:34:33.559Z,74384.43
2017-10-12T08:35:33.589Z,74387.21
2017-10-12T08:36:33.620Z,74357.80
2017-10-12T08:37:33.650Z,74377.40
2017-10-12T08:38:33.680Z,74387.73
2017-10-12T08:39:33.709Z,74367.48
2017-10-12T08:40:33.739Z,74361.97
2017-10-12T08:41:33.770Z,74341.36
2017-10-12T08:42:33.806Z,74366.67
2017-10-12T08:43:33.832Z,74351.49
2017-10-12T08:44:33.859Z,74361.27
2017-10-12T08:45:33.891Z,74383.03
2017-10-12T08:46:33.920Z,74353.70
2017-10-12T08:47:33.951Z,74402.66
2017-10-12T08:48:33.982Z,74352.49
2017-10-12T08:49:34.014Z,74384.91
2017-10-12T08:50:34.044Z,74385.18
2017-10-12T08:51:34.075Z,74367.87
2017-10-12T08:52:34.106Z,74354.30
2017-10-12T08:53:34.136Z,74386.30
2017-10-12T08:54:34.167Z,74365.14
2017-10-12T08:55:34.199Z,74420.55
2017-10-12T08:56:34.230Z,74385.27
2017-10-12T08:57:34.261Z,74377.09
2017-10-12T08:58:34.292Z,74372.21
2017-10-12T08:59:34.333Z,74348.82
2017-10-12T09:00:34.355Z,74375.16
2017-10-12T09:01:34.384Z,74355.16
2017-10-12T09:02:34.416Z,74384.79
2017-10-12T09:03:34.445Z,74382.90
2017-10-12T09:04:34.479Z,74389.22
2017-10-12T09:05:34.510Z,74358.50
2017-10-12T09:06:34.539Z,74377.56
2017-10-12T09:07:34.571Z,74404.29
2017-10-12T09:08:34.602Z,74350.82
2017-10-12T09:09:34.633Z,74374.88
2017-10-12T09:10:34.663Z,74399.96
2017-10-12T09:11:34.695Z,74369.02
2017-10-12T09:12:34.725Z,74346.23
2017-10-12T09:13:34.762Z,74395.41
2017-10-12T09:14:34.788Z,74381.22
2017-10-12T09:15:34.819Z,74408.62
2017-10-12T09:16:34.860Z,74398.23
2017-10-12T09:17:34.882Z,74375.30
2017-10-12T09:18:34.914Z,74373.13
2017-10-12T09:19:34.946Z,74409.22
2017-10-12T09:20:34.979Z,74392.09
2017-10-12T09:21:35.010Z,74396.91
2017-10-12T09:22:35.041Z,74404.82
2017-10-12T09:23:35.075Z,74402.24
2017-10-12T09:24:35.107Z,74402.83
2017-10-12T09:25:35.138Z,74405.09
2017-10-12T09:26:35.173Z,74401.84
2017-10-12T09:27:35.203Z,74402.62
2017-10-12T09:28:35.236Z,74409.98
2017-10-12T09:29:35.268Z,74428.70
2017-10-12T09:30:35.301Z,74379.05
2017-10-12T09:31:35.335Z,74407.07
2017-10-12T09:32:35.367Z,74438.74
2017-10-12T09:33:35.399Z,74427.39
2017-10-12T09:34:35.432Z,74405.50
2017-10-12T09:35:35.465Z,74412.50
2017-10-12T09:36:35.503Z,74409.26
2017-10-12T09:37:35.531Z,74412.58
2017-10-12T09:38:35.563Z,74405.76
2017-10-12T09:39:35.597Z,74413.05
2017-10-12T09:40:35.630Z,74429.42
2017-10-12T09:41:35.663Z,74417.95
2017-10-12T09:42:35.696Z,74444.13
2017-10-12T09:43:35.730Z,74423.80
2017-10-12T09:44:35.764Z,74424.87
2017-10-12T09:45:35.814Z,74427.25
2017-10-12T09:46:35.829Z,74438.00
2017-10-12T09:47:35.862Z,74417.70
2017-10-12T09:48:35.895Z,74442.60
2017-10-12T09:49:35.928Z,74418.77
2017-10-12T09:50:35.961Z,74437.77
2017-10-12T09:51:35.993Z,74412.97
2017-10-12T09:52:36.027Z,74427.33
2017-10-12T09:53:36.060Z,74453.46
2017-10-12T09:54:36.092Z,74430.47
2017-10-12T09:55:36.125Z,74409.36
2017-10-12T09:56:36.157Z,74432.24
2017-10-12T09:57:36.190Z,74456.31
2017-10-12T09:58:36.222Z,74404.65
2017-10-12T09:59:36.256Z,74433.32
2017-10-12T10:00:36.288Z,74454.48
2017-10-12T10:01:36.320Z,74409.61
2017-10-12T10:02:36.353Z,74421.02
2017-10-12T10:03:36.384Z,74431.09
2017-10-12T10:04:36.416Z,74438.88
2017-10-12T10:05:36.449Z,74444.02
2017-10-12T10:06:36.479Z,74460.88
2017-10-12T10:07:36.512Z,74427.90
2017-10-12T10:08:36.545Z,74433.35
2017-10-12T10:09:36.575Z,74438.53
2017-10-12T10:10:36.606Z,74448.98
2017-10-12T10:11:36.638Z,74451.04
2017-10-12T10:12:36.670Z,74453.31
2017-10-12T10:13:36.701Z,74434.23
2017-10-12T10:14:36.732Z,74431.50
2017-10-12T10:15:36.763Z,74437.72
2017-10-12T10:16:36.794Z,74450.51
2017-10-12T10:17:36.825Z,74448.58
2017-10-12T10:18:36.855Z,74471.14
2017-10-12T10:19:36.885Z,74468.89
2017-10-12T10:20:36.916Z,74469.56
2017-10-12T10:21:36.948Z,74457.56
2017-10-12T10:22:36.977Z,74449.61
2017-10-12T10:23:37.013Z,74473.84
2017-10-12T10:24:37.039Z,74449.04
2017-10-12T10:25:37.070Z,74455.14
2017-10-12T10:26:37.098Z,74437.20
2017-10-12T10:27:37.129Z,74454.57
2017-10-12T10:28:37.162Z,74455.53
2017-10-12T10:29:37.192Z,74465.26
2017-10-12T10:30:37.218Z,74469.20
2017-10-12T10:31:37.250Z,74473.16
2017-10-12T10:32:37.286Z,74467.40
2017-10-12T10:33:37.313Z,74465.84
2017-10-12T10:34:37.338Z,74458.08
2017-10-12T10:35:37.367Z,74462.59
2017-10-12T10:36:37.397Z,74453.65
2017-10-12T10:37:37.428Z,74469.20
2017-10-12T10:38:37.457Z,74476.10
2017-10-12T10:39:37.488Z,74479.37
2017-10-12T10:40:37.518Z,74484.36
2017-10-12T10:41:37.549Z,74474.74
2017-10-12T10:42:37.578Z,74468.10
2017-10-12T10:43:37.611Z,74476.45
2017-10-12T10:44:37.642Z,74469.16
2017-10-12T10:45:37.675Z,74471.81
2017-10-12T10:46:37.705Z,74474.64
2017-10-12T10:47:37.741Z,74487.27
2017-10-12T10:48:37.772Z,74479.31
2017-10-12T10:49:37.805Z,74477.93
2017-10-12T10:50:37.845Z,74480.95
2017-10-12T10:51:37.875Z,74485.89
2017-10-12T10:52:37.907Z,74490.20
2017-10-12T10:53:37.943Z,74494.54
2017-10-12T10:54:37.977Z,74477.38
2017-10-12T10:55:38.013Z,74472.54
2017-10-12T10:56:38.050Z,74483.70
2017-10-12T10:57:38.096Z,74474.52
2017-10-12T10:58:38.120Z,74482.70
2017-10-12T10:59:38.156Z,74486.77
2017-10-12T11:00:38.193Z,74473.61
2017-10-12T11:01:38.229Z,74481.42
2017-10-12T11:02:38.264Z,74482.66
2017-10-12T11:03:38.300Z,74491.65
2017-10-12T11:04:38.337Z,74494.77
2017-10-12T11:05:38.373Z,74482.03
2017-10-12T11:06:38.409Z,74479.63
2017-10-12T11:07:38.445Z,74480.48
2017-10-12T11:08:38.483Z,74476.23
2017-10-12T11:09:38.519Z,74491.47
2017-10-12T11:10:38.554Z,74497.02
2017-10-12T11:11:38.591Z,74482.05
2017-10-12T11:12:38.628Z,74476.60
2017-10-12T11:13:38.663Z,74486.53
2017-10-12T11:14:38.698Z,74478.77
2017-10-12T11:15:38.733Z,74487.87
2017-10-12T11:16:38.768Z,74502.10
2017-10-12T11:17:38.803Z,74504.51
2017-10-12T11:18:38.837Z,74487.21
2017-10-12T11:19:38.875Z,74489.52
2017-10-12T11:20:38.907Z,74483.41
2017-10-12T11:21:38.940Z,74485.66
2017-10-12T11:22:38.972Z,74481.94
2017-10-12T11:23:39.008Z,74492.27
2017-10-12T11:24:39.040Z,74487.84
2017-10-12T11:25:39.074Z,74497.51
2017-10-12T11:26:39.107Z,74499.95
2017-10-12T11:27:39.139Z,74488.92
2017-10-12T11:28:39.173Z,74496.13
2017-10-12T11:29:39.207Z,74494.49
2017-10-12T11:30:39.248Z,74496.11
2017-10-12T11:31:39.271Z,74496.02
2017-10-12T11:32:39.305Z,74490.32
2017-10-12T11:33:39.338Z,74491.92
2017-10-12T11:34:39.370Z,74488.69
2017-10-12T11:35:39.403Z,74494.36
2017-10-12T11:36:39.436Z,74488.90
2017-10-12T11:37:39.469Z,74473.34
2017-10-12T11:38:39.502Z,74480.53
2017-10-12T11:39:39.548Z,74493.51
2017-10-12T11:40:39.568Z,74481.23
2017-10-12T11:41:39.601Z,74488.00
2017-10-12T11:42:39.635Z,74484.45
2017-10-12T11:43:39.666Z,74495.41
2017-10-12T11:44:39.699Z,74492.04